createdAt,value
2023-10-18T00:00:45.754Z,100112.94
2023-10-18T00:03:12.847Z,100115.13
2023-10-18T00:05:43.317Z,100113.56
2023-10-18T00:08:11.035Z,100107.53
2023-10-18T00:10:38.029Z,100104.41
2023-10-18T00:13:04.919Z,100104.16
2023-10-18T00:15:32.775Z,100101.63
2023-10-18T00:17:59.710Z,100094.84
2023-10-18T00:20:27.341Z,100093.03
2023-10-18T00:22:55.848Z,100090.50
2023-10-18T00:25:23.243Z,100091.41
2023-10-18T00:27:50.875Z,100091.44
2023-10-18T00:30:21.288Z,100083.00
2023-10-18T00:32:48.554Z,100085.53
2023-10-18T00:35:23.308Z,100079.47
2023-10-18T00:37:56.780Z,100071.59
2023-10-18T00:40:50.655Z,100069.50
2023-10-18T00:43:21.683Z,100067.75
2023-10-18T00:45:52.021Z,100065.38
2023-10-18T00:48:28.607Z,100058.41
2023-10-18T00:50:58.820Z,100051.56
2023-10-18T00:53:32.312Z,100060.94
2023-10-18T00:56:01.277Z,100053.97
2023-10-18T00:58:33.197Z,100053.97
2023-10-18T01:01:10.371Z,100052.63
2023-10-18T01:03:52.840Z,100005.44
2023-10-18T01:06:23.701Z,100042.00
2023-10-18T01:08:51.780Z,100036.69
2023-10-18T01:11:29.599Z,100036.59
2023-10-18T01:13:57.357Z,100031.69
2023-10-18T01:16:25.168Z,100031.66
2023-10-18T01:18:57.276Z,100031.31
2023-10-18T01:21:25.023Z,100036.50
2023-10-18T01:23:54.850Z,100029.81
2023-10-18T01:26:26.781Z,100016.09
2023-10-18T01:28:55.685Z,100022.22
2023-10-18T01:31:23.837Z,100021.47
2023-10-18T01:33:52.757Z,100012.94
2023-10-18T01:36:22.718Z,99977.81
2023-10-18T01:38:54.279Z,100015.00
2023-10-18T01:41:31.585Z,100014.78
2023-10-18T01:44:11.737Z,100018.97
2023-10-18T01:46:46.693Z,100015.66
2023-10-18T01:49:22.718Z,100003.38
2023-10-18T01:51:53.678Z,99997.84
2023-10-18T01:54:21.772Z,100005.53
2023-10-18T01:56:48.547Z,99998.69
2023-10-18T01:59:19.081Z,99996.63
2023-10-18T02:01:55.268Z,100003.03
2023-10-18T02:04:36.385Z,100003.94
2023-10-18T02:07:19.419Z,99993.44
2023-10-18T02:09:51.591Z,99994.38
2023-10-18T02:12:22.995Z,99994.00
2023-10-18T02:14:51.530Z,99989.25
2023-10-18T02:17:23.300Z,99994.75
2023-10-18T02:19:50.706Z,99998.50
2023-10-18T02:22:17.858Z,99984.56
2023-10-18T02:24:45.014Z,99984.78
2023-10-18T02:27:17.563Z,99987.97
2023-10-18T02:29:46.420Z,99984.78
2023-10-18T02:32:34.367Z,99981.00
2023-10-18T02:35:06.031Z,99984.31
2023-10-18T02:37:33.216Z,99984.25
2023-10-18T02:40:09.549Z,99951.44
2023-10-18T02:42:38.181Z,99967.50
2023-10-18T02:45:15.361Z,99968.25
2023-10-18T02:47:42.914Z,99963.81
2023-10-18T02:50:10.085Z,99962.59
2023-10-18T02:52:36.868Z,99958.13
2023-10-18T02:55:04.509Z,99952.88
2023-10-18T02:57:33.705Z,99949.31
2023-10-18T03:00:11.664Z,99959.53
2023-10-18T03:02:40.125Z,99954.38
2023-10-18T03:05:08.238Z,99936.66
2023-10-18T03:07:36.331Z,99948.41
2023-10-18T03:10:12.830Z,99951.81
2023-10-18T03:12:40.206Z,99948.47
2023-10-18T03:15:12.959Z,99950.91
2023-10-18T03:17:39.793Z,99943.19
2023-10-18T03:20:23.643Z,99938.16
2023-10-18T03:22:51.583Z,99923.31
2023-10-18T03:25:18.626Z,99927.25
2023-10-18T03:27:58.973Z,99922.78
2023-10-18T03:30:42.040Z,99932.25
2023-10-18T03:33:09.344Z,99932.94
2023-10-18T03:35:41.044Z,99935.69
2023-10-18T03:38:23.078Z,99937.28
2023-10-18T03:40:57.750Z,99930.41
2023-10-18T03:43:28.144Z,99918.53
2023-10-18T03:46:14.079Z,99928.03
2023-10-18T03:48:45.993Z,99923.81
2023-10-18T03:51:21.649Z,99911.81
2023-10-18T03:53:54.748Z,99901.78
2023-10-18T03:56:23.495Z,99897.41
2023-10-18T03:58:54.669Z,99890.16
2023-10-18T04:01:23.203Z,99879.25
2023-10-18T04:03:53.985Z,99898.47
2023-10-18T04:06:24.844Z,99905.06
2023-10-18T04:08:51.645Z,99904.31
2023-10-18T04:11:25.804Z,99905.84
2023-10-18T04:13:52.663Z,99899.06
2023-10-18T04:16:20.132Z,99885.44
2023-10-18T04:18:47.157Z,99887.97
2023-10-18T04:21:16.544Z,99873.16
2023-10-18T04:23:47.671Z,99881.47
2023-10-18T04:26:19.809Z,99891.56
2023-10-18T04:28:47.087Z,99863.19
2023-10-18T04:31:16.120Z,99885.66
2023-10-18T04:33:44.064Z,99878.78
2023-10-18T04:36:14.053Z,99871.94
2023-10-18T04:38:44.981Z,99865.34
2023-10-18T04:41:25.693Z,99872.06
2023-10-18T04:43:58.131Z,99872.06
2023-10-18T04:46:28.553Z,99859.94
2023-10-18T04:49:16.152Z,99865.13
2023-10-18T04:52:03.755Z,99862.03
2023-10-18T04:54:43.246Z,99853.69
2023-10-18T04:57:13.579Z,99854.56
2023-10-18T04:59:46.762Z,99850.19
2023-10-18T05:02:27.007Z,99857.16
2023-10-18T05:04:53.807Z,99853.72
2023-10-18T05:07:21.235Z,99838.31
2023-10-18T05:09:56.736Z,99842.97
2023-10-18T05:12:46.799Z,99836.75
2023-10-18T05:15:18.867Z,99838.75
2023-10-18T05:17:46.345Z,99839.28
2023-10-18T05:20:39.640Z,99837.44
2023-10-18T05:23:07.050Z,99835.56
2023-10-18T05:25:37.437Z,99838.28
2023-10-18T05:28:11.488Z,99824.31
2023-10-18T05:30:58.013Z,99829.25
2023-10-18T05:34:00.215Z,99814.78
2023-10-18T05:36:47.950Z,99814.31
2023-10-18T05:59:50.872Z,99813.50
2023-10-18T06:02:27.487Z,99811.38
2023-10-18T06:04:59.463Z,99816.97
2023-10-18T06:07:28.468Z,99816.69
2023-10-18T06:10:16.159Z,99807.81
2023-10-18T06:12:48.804Z,99806.88
2023-10-18T06:15:18.218Z,99798.63
2023-10-18T06:17:48.346Z,99796.75
2023-10-18T06:20:48.327Z,99797.31
2023-10-18T06:23:53.864Z,99792.19
2023-10-18T06:26:30.522Z,99795.16
2023-10-18T06:29:03.905Z,99794.44
2023-10-18T06:31:31.824Z,99792.25
2023-10-18T06:34:05.263Z,99792.78
2023-10-18T06:36:35.406Z,99798.69
2023-10-18T06:39:02.325Z,99798.38
2023-10-18T06:41:32.411Z,99805.16
2023-10-18T06:44:02.067Z,99798.13
2023-10-18T06:46:30.120Z,99796.19
2023-10-18T06:51:34.940Z,99805.47
2023-10-18T06:54:04.731Z,99801.91
2023-10-18T06:56:40.459Z,99799.28
2023-10-18T06:59:08.621Z,99792.41
2023-10-18T07:01:42.959Z,99776.03
2023-10-18T07:04:20.037Z,99771.41
2023-10-18T07:06:47.580Z,99769.94
2023-10-18T07:09:26.251Z,99768.97
2023-10-18T07:11:54.424Z,99765.28
2023-10-18T07:14:25.947Z,99769.59
2023-10-18T07:16:56.321Z,99771.31
2023-10-18T07:19:28.400Z,99765.22
2023-10-18T07:21:56.406Z,99765.97
2023-10-18T07:24:26.190Z,99765.66
2023-10-18T07:26:54.544Z,99769.75
2023-10-18T07:29:22.478Z,99765.47
2023-10-18T07:31:49.378Z,99763.38
2023-10-18T07:34:19.367Z,99774.34
2023-10-18T07:36:47.312Z,99768.13
2023-10-18T07:39:17.985Z,99767.53
2023-10-18T07:41:45.379Z,99765.34
2023-10-18T07:44:12.282Z,99761.56
2023-10-18T07:46:42.904Z,99759.66
2023-10-18T07:49:15.825Z,99734.50
2023-10-18T07:51:49.755Z,99746.94
2023-10-18T07:54:19.215Z,99742.41
2023-10-18T07:56:55.833Z,99729.78
2023-10-18T07:59:31.901Z,99722.78
2023-10-18T08:02:31.063Z,99726.66
2023-10-18T08:05:02.042Z,99723.06
2023-10-18T08:07:34.154Z,99719.38
2023-10-18T08:10:08.051Z,99721.63
2023-10-18T08:12:35.261Z,99708.16
2023-10-18T08:15:05.340Z,99702.44
2023-10-18T08:17:44.892Z,99703.50
2023-10-18T08:20:45.876Z,99714.63
2023-10-18T08:23:47.798Z,99718.88
2023-10-18T08:26:14.497Z,99721.41
2023-10-18T08:28:43.310Z,99709.66
2023-10-18T08:31:36.778Z,99697.31
2023-10-18T08:34:08.071Z,99665.50
2023-10-18T08:36:35.079Z,99684.34
2023-10-18T08:39:03.531Z,99682.28
2023-10-18T08:41:35.352Z,99651.47
2023-10-18T08:44:20.571Z,99675.63
2023-10-18T08:47:08.781Z,99671.88
2023-10-18T08:49:46.042Z,99670.25
2023-10-18T08:52:13.252Z,99669.84
2023-10-18T08:54:43.939Z,99666.56
2023-10-18T08:57:12.279Z,99657.56
2023-10-18T08:59:47.524Z,99663.28
2023-10-18T09:02:23.130Z,99664.25
2023-10-18T09:05:00.634Z,99652.97
2023-10-18T09:07:46.289Z,99648.31
2023-10-18T09:10:34.993Z,99652.22
2023-10-18T09:13:30.266Z,99654.81
2023-10-18T09:16:03.844Z,99656.13
2023-10-18T09:18:35.701Z,99656.44
2023-10-18T09:21:34.902Z,99645.69
2023-10-18T09:24:01.639Z,99645.91
2023-10-18T09:26:37.183Z,99638.19
2023-10-18T09:29:04.213Z,99620.16
2023-10-18T09:31:32.200Z,99620.81
2023-10-18T09:34:09.252Z,99624.59
2023-10-18T09:36:47.909Z,99633.44
2023-10-18T09:39:16.103Z,99616.06
2023-10-18T09:41:42.870Z,99628.50
2023-10-18T09:44:10.484Z,99616.56
2023-10-18T09:46:39.097Z,99624.53
2023-10-18T09:49:11.033Z,99622.25
2023-10-18T09:51:45.941Z,99613.84
2023-10-18T09:54:14.368Z,99600.34
2023-10-18T09:56:41.905Z,99595.59
2023-10-18T09:59:17.807Z,99588.38
2023-10-18T10:02:07.795Z,99584.75
2023-10-18T10:04:37.129Z,99570.59
2023-10-18T10:07:23.519Z,99566.41
2023-10-18T10:09:51.989Z,99563.91
2023-10-18T10:12:19.528Z,99565.56
2023-10-18T10:14:47.420Z,99566.41
2023-10-18T10:17:19.229Z,99555.88
2023-10-18T10:19:51.636Z,99559.44
2023-10-18T10:22:26.274Z,99546.06
2023-10-18T10:25:06.467Z,99557.41
2023-10-18T10:27:59.248Z,99561.69
2023-10-18T10:30:36.294Z,99521.75
2023-10-18T10:33:13.517Z,99558.50
2023-10-18T10:35:48.091Z,99560.75
2023-10-18T10:38:16.559Z,99549.50
2023-10-18T10:40:49.932Z,99545.81
2023-10-18T10:43:20.781Z,99544.31
2023-10-18T10:46:12.827Z,99539.56
2023-10-18T10:48:43.734Z,99534.38
2023-10-18T10:51:34.646Z,99507.50
2023-10-18T10:54:02.765Z,99507.00
2023-10-18T10:56:52.682Z,99497.72
2023-10-18T10:59:22.969Z,99488.00
2023-10-18T11:30:24.236Z,99432.31
2023-10-18T11:32:55.613Z,99437.28
2023-10-18T11:35:47.063Z,99431.53
2023-10-18T11:38:14.921Z,99417.31
2023-10-18T11:40:45.673Z,99413.50
2023-10-18T11:43:13.126Z,99423.13
2023-10-18T11:45:41.443Z,99416.91
2023-10-18T11:48:15.720Z,99400.81
2023-10-18T11:50:52.358Z,99369.59
2023-10-18T11:53:25.947Z,99392.59
2023-10-18T11:56:03.206Z,99393.09
2023-10-18T11:58:33.511Z,99399.88
2023-10-18T12:01:18.187Z,99391.63
2023-10-18T12:03:45.622Z,99378.38
2023-10-18T12:06:15.644Z,99367.66
2023-10-18T12:08:49.090Z,99372.44
2023-10-18T12:11:16.069Z,99368.22
2023-10-18T12:13:43.700Z,99372.09
2023-10-18T12:16:10.676Z,99362.97
2023-10-18T12:18:37.543Z,99356.88
2023-10-18T12:21:06.899Z,99347.53
2023-10-18T12:23:37.101Z,99345.84
2023-10-18T12:26:07.766Z,99346.03
2023-10-18T12:28:39.960Z,99342.78
2023-10-18T12:31:18.273Z,99350.78
2023-10-18T12:33:51.012Z,99345.81
2023-10-18T12:36:24.316Z,99337.78
2023-10-18T12:38:51.550Z,99350.88
2023-10-18T12:41:28.931Z,99348.59
2023-10-18T12:43:55.916Z,99347.47
2023-10-18T12:46:23.917Z,99344.06
2023-10-18T12:48:51.145Z,99333.84
2023-10-18T12:51:19.084Z,99326.44
2023-10-18T12:53:50.455Z,99320.50
2023-10-18T12:56:49.805Z,99319.06
2023-10-18T12:59:24.613Z,99324.69
2023-10-18T13:01:51.802Z,99316.56
2023-10-18T13:04:18.681Z,99313.44
2023-10-18T13:06:47.206Z,99321.97
2023-10-18T13:09:20.693Z,99319.50
2023-10-18T13:12:13.077Z,99302.28
2023-10-18T13:14:40.936Z,99296.38
2023-10-18T13:17:12.398Z,99298.50
2023-10-18T13:19:43.555Z,99286.59
2023-10-18T13:22:18.778Z,99274.16
2023-10-18T13:24:46.782Z,99266.97
2023-10-18T13:27:16.999Z,99268.84
2023-10-18T13:30:12.862Z,99267.28
2023-10-18T13:32:41.772Z,99262.31
2023-10-18T13:35:16.727Z,99256.47
2023-10-18T13:37:44.849Z,99252.84
2023-10-18T13:40:20.204Z,99259.06
2023-10-18T13:42:47.802Z,99252.00
2023-10-18T13:45:15.767Z,99234.03
2023-10-18T13:47:42.962Z,99231.13
2023-10-18T13:50:11.462Z,99224.13
2023-10-18T13:52:42.614Z,99235.19
2023-10-18T13:55:09.927Z,99231.13
2023-10-18T13:57:36.745Z,99209.47
2023-10-18T14:00:08.298Z,99204.28
2023-10-18T14:02:38.984Z,99203.56
2023-10-18T14:05:12.055Z,99206.03
2023-10-18T14:07:38.842Z,99200.13
2023-10-18T14:10:29.361Z,99190.09
2023-10-18T14:12:56.785Z,99176.69
2023-10-18T14:15:23.642Z,99169.41
2023-10-18T14:17:56.936Z,99158.59
2023-10-18T14:20:26.932Z,99140.13
2023-10-18T14:22:57.792Z,99140.91
2023-10-18T14:25:26.985Z,99152.81
2023-10-18T14:27:54.393Z,99146.44
2023-10-18T14:30:21.712Z,99151.97
2023-10-18T14:32:48.645Z,99148.44
2023-10-18T14:35:18.223Z,99147.00
2023-10-18T14:37:47.153Z,99142.13
2023-10-18T14:40:14.360Z,99139.00
2023-10-18T14:42:41.147Z,99138.38
2023-10-18T14:45:08.581Z,99142.50
2023-10-18T14:47:39.604Z,99122.47
2023-10-18T14:50:08.400Z,99119.75
2023-10-18T14:52:35.257Z,99119.59
2023-10-18T14:55:04.417Z,99120.91
2023-10-18T14:57:31.320Z,99113.19
2023-10-18T14:59:58.057Z,99116.59
2023-10-18T15:02:25.013Z,99114.72
2023-10-18T15:04:53.424Z,99118.88
2023-10-18T15:07:20.208Z,99105.69
2023-10-18T15:09:47.309Z,99102.75
2023-10-18T15:12:17.300Z,99099.47
2023-10-18T15:14:45.644Z,99097.06
2023-10-18T15:17:12.621Z,99098.00
2023-10-18T15:19:40.316Z,99098.94
2023-10-18T15:22:07.104Z,99098.50
2023-10-18T15:24:41.949Z,99096.50
2023-10-18T15:27:14.416Z,99087.59
2023-10-18T15:29:41.431Z,99092.81
2023-10-18T15:32:09.334Z,99088.72
2023-10-18T15:34:39.210Z,99080.97
2023-10-18T15:37:07.796Z,99085.53
2023-10-18T15:39:35.287Z,99070.22
2023-10-18T15:42:02.214Z,99074.41
2023-10-18T15:44:31.293Z,99065.31
2023-10-18T15:47:01.538Z,99072.03
2023-10-18T15:49:30.081Z,99070.25
2023-10-18T15:51:58.556Z,99060.22
2023-10-18T15:54:25.411Z,99057.00
2023-10-18T15:56:52.813Z,99058.50
2023-10-18T15:59:19.609Z,99056.63
2023-10-18T16:01:58.304Z,99054.22
2023-10-18T16:04:27.988Z,99058.50
2023-10-18T16:06:57.255Z,99050.69
2023-10-18T16:09:24.205Z,99051.59
2023-10-18T16:11:50.972Z,99039.53
2023-10-18T16:14:17.854Z,99045.72
2023-10-18T16:16:44.845Z,99046.19
2023-10-18T16:19:11.713Z,99039.69
2023-10-18T16:21:39.271Z,99041.56
2023-10-18T16:24:07.077Z,99037.84
2023-10-18T16:26:34.505Z,99034.19
2023-10-18T16:29:02.360Z,99035.06
2023-10-18T16:31:31.456Z,99035.66
2023-10-18T16:34:01.075Z,99027.25
2023-10-18T16:36:28.221Z,99026.03
2023-10-18T16:38:55.911Z,99030.00
2023-10-18T16:41:22.932Z,99027.41
2023-10-18T16:43:52.569Z,99029.78
2023-10-18T16:46:22.252Z,99023.94
2023-10-18T16:48:51.310Z,99026.94
2023-10-18T16:51:18.950Z,99019.41
2023-10-18T16:53:47.753Z,99013.47
2023-10-18T16:56:15.985Z,99007.69
2023-10-18T16:58:43.120Z,99003.94
2023-10-18T17:01:13.978Z,99006.94
2023-10-18T17:03:46.211Z,99009.19
2023-10-18T17:06:14.971Z,99002.22
2023-10-18T17:08:44.038Z,99002.09
2023-10-18T17:11:16.550Z,98990.47
2023-10-18T17:13:49.230Z,99004.13
2023-10-18T17:16:18.828Z,98990.53
2023-10-18T17:18:46.468Z,98989.63
2023-10-18T17:23:45.318Z,98987.75
2023-10-18T17:26:13.182Z,98989.41
2023-10-18T17:28:40.462Z,98981.94
2023-10-18T17:31:07.470Z,98971.16
2023-10-18T17:33:34.459Z,98974.06
2023-10-18T17:36:01.950Z,98961.41
2023-10-18T17:38:28.849Z,98956.59
2023-10-18T17:40:55.745Z,98955.91
2023-10-18T17:43:23.638Z,98951.75
2023-10-18T17:45:51.881Z,98952.63
2023-10-18T17:48:19.775Z,98947.38
2023-10-18T17:50:47.906Z,98938.34
2023-10-18T17:53:15.428Z,98932.34
2023-10-18T17:55:45.496Z,98925.81
2023-10-18T17:58:18.757Z,98927.88
2023-10-18T18:00:54.038Z,98931.50
2023-10-18T18:03:24.221Z,98933.59
2023-10-18T18:05:51.445Z,98928.97
2023-10-18T18:08:27.041Z,98919.13
2023-10-18T18:10:55.106Z,98919.44
2023-10-18T18:13:23.583Z,98887.84
2023-10-18T18:15:51.602Z,98914.47
2023-10-18T18:18:25.650Z,98877.84
2023-10-18T18:20:54.416Z,98891.25
2023-10-18T18:23:21.317Z,98896.06
2023-10-18T18:25:48.653Z,98892.31
2023-10-18T18:28:16.012Z,98882.69
2023-10-18T18:30:45.504Z,98895.91
2023-10-18T18:33:13.586Z,98896.28
2023-10-18T18:35:41.555Z,98898.16
2023-10-18T18:38:09.256Z,98895.78
2023-10-18T18:40:39.289Z,98892.72
2023-10-18T18:43:06.094Z,98901.09
2023-10-18T18:45:32.855Z,98902.16
2023-10-18T18:47:59.908Z,98896.03
2023-10-18T18:50:26.955Z,98895.34
2023-10-18T18:52:53.899Z,98887.00
2023-10-18T18:55:22.198Z,98896.19
2023-10-18T18:57:51.638Z,98893.25
2023-10-18T19:00:21.577Z,98894.72
2023-10-18T19:02:50.359Z,98894.25
2023-10-18T19:05:17.451Z,98892.16
2023-10-18T19:07:44.748Z,98888.66
2023-10-18T19:10:16.168Z,98887.97
2023-10-18T19:12:44.103Z,98895.41
2023-10-18T19:15:12.086Z,98896.97
2023-10-18T19:17:42.699Z,98895.84
2023-10-18T19:20:13.110Z,98888.47
2023-10-18T19:22:40.677Z,98885.97
2023-10-18T19:25:08.050Z,98885.97
2023-10-18T19:27:36.435Z,98887.53
2023-10-18T19:30:13.116Z,98886.09
2023-10-18T19:32:40.843Z,98888.91
2023-10-18T19:35:10.719Z,98889.34
2023-10-18T19:37:38.903Z,98879.19
2023-10-18T19:40:08.385Z,98881.16
2023-10-18T19:42:35.720Z,98881.25
2023-10-18T19:45:03.975Z,98877.31
2023-10-18T19:47:31.869Z,98881.59
2023-10-18T19:50:00.013Z,98881.88
2023-10-18T19:52:28.539Z,98882.22
2023-10-18T19:54:55.608Z,98879.09
2023-10-18T19:57:22.711Z,98874.53
2023-10-18T19:59:52.565Z,98880.94
2023-10-18T20:02:20.363Z,98880.66
2023-10-18T20:04:47.997Z,98877.31
2023-10-18T20:07:17.025Z,98876.50
2023-10-18T20:09:44.701Z,98867.38
2023-10-18T20:12:12.041Z,98865.59
2023-10-18T20:14:39.271Z,98863.53
2023-10-18T20:17:07.082Z,98862.28
2023-10-18T20:19:34.334Z,98844.84
2023-10-18T20:22:01.545Z,98866.44
2023-10-18T20:24:28.328Z,98858.66
2023-10-18T20:26:55.175Z,98853.16
2023-10-18T20:29:22.514Z,98845.41
2023-10-18T20:31:49.672Z,98846.63
2023-10-18T20:34:16.819Z,98857.31
2023-10-18T20:36:44.483Z,98865.81
2023-10-18T20:39:11.291Z,98855.66
2023-10-18T20:41:39.881Z,98854.63
2023-10-18T20:44:26.204Z,98851.41
2023-10-18T20:46:53.991Z,98843.63
2023-10-18T20:49:24.345Z,98840.81
2023-10-18T20:51:53.177Z,98843.50
2023-10-18T20:54:21.585Z,98829.41
2023-10-18T20:56:55.027Z,98847.16
2023-10-18T20:59:30.370Z,98832.16
2023-10-18T21:02:04.154Z,98833.38
2023-10-18T21:04:34.670Z,98829.22
2023-10-18T21:07:01.643Z,98823.72
2023-10-18T21:09:28.520Z,98832.41
2023-10-18T21:11:55.967Z,98835.75
2023-10-18T21:14:24.761Z,98835.81
2023-10-18T21:16:53.151Z,98833.66
2023-10-18T21:19:20.448Z,98837.41
2023-10-18T21:21:49.059Z,98837.97
2023-10-18T21:24:16.493Z,98824.50
2023-10-18T21:26:43.306Z,98823.66
2023-10-18T21:29:10.401Z,98823.47
2023-10-18T21:31:38.717Z,98815.09
2023-10-18T21:34:05.698Z,98809.19
2023-10-18T21:36:33.488Z,98806.25
2023-10-18T21:39:00.394Z,98798.94
2023-10-18T21:41:27.305Z,98788.25
2023-10-18T21:43:54.316Z,98787.56
2023-10-18T21:46:21.225Z,98774.59
2023-10-18T21:48:48.377Z,98774.06
2023-10-18T21:51:16.641Z,98774.59
2023-10-18T21:53:44.521Z,98772.81
2023-10-18T21:56:15.620Z,98764.66
2023-10-18T21:58:48.078Z,98761.63
2023-10-18T22:01:34.501Z,98758.94
2023-10-18T22:04:05.194Z,98745.44
2023-10-18T22:06:35.398Z,98743.72
2023-10-18T22:09:24.722Z,98741.41
2023-10-18T22:11:52.927Z,98738.75
2023-10-18T22:14:20.135Z,98740.38
2023-10-18T22:16:55.373Z,98741.34
2023-10-18T22:19:32.937Z,98730.31
2023-10-18T22:22:13.454Z,98729.81
2023-10-18T22:24:40.700Z,98730.03
2023-10-18T22:27:14.661Z,98730.44
2023-10-18T22:29:42.580Z,98726.19
2023-10-18T22:34:43.464Z,98739.00
2023-10-18T22:37:13.923Z,98740.50
2023-10-18T22:39:45.490Z,98732.09
2023-10-18T22:42:23.248Z,98736.88
2023-10-18T22:45:09.545Z,98737.16
2023-10-18T22:47:52.475Z,98729.69
2023-10-18T22:50:39.284Z,98716.44
2023-10-18T22:53:41.772Z,98720.59
2023-10-18T22:56:11.941Z,98726.06
2023-10-18T22:58:38.822Z,98736.22
2023-10-18T23:01:10.498Z,98742.03
2023-10-18T23:03:37.624Z,98731.25
2023-10-18T23:06:11.863Z,98736.66
2023-10-18T23:08:38.902Z,98731.69
2023-10-18T23:11:28.861Z,98730.88
2023-10-18T23:13:56.689Z,98722.34
2023-10-18T23:16:55.266Z,98724.00
2023-10-18T23:19:49.278Z,98726.81
2023-10-18T23:22:35.983Z,98722.34
2023-10-18T23:25:22.755Z,98724.09
2023-10-18T23:28:08.064Z,98714.97
2023-10-18T23:30:40.913Z,98712.84
2023-10-18T23:33:46.090Z,98703.38
2023-10-18T23:36:15.902Z,98701.50
2023-10-18T23:38:44.846Z,98699.44
2023-10-18T23:41:21.836Z,98705.03
2023-10-18T23:43:50.946Z,98711.84
2023-10-18T23:46:56.615Z,98688.56
2023-10-18T23:49:47.517Z,98694.69
2023-10-18T23:57:55.369Z,98677.38
